sensor_id;sensor_type;location;lat;lon;timestamp;P1;durP1;ratioP1;P2;durP2;ratioP2
70363;SDS011;57785;43.898;1.886;2022-09-01T06:08:44;11.98;;;7.00;;
70363;SDS011;57785;43.898;1.886;2022-09-01T06:11:13;14.90;;;6.65;;
70363;SDS011;57785;43.898;1.886;2022-09-01T06:13:40;13.60;;;7.20;;
70363;SDS011;57785;43.898;1.886;2022-09-01T06:16:10;11.00;;;6.28;;
70363;SDS011;57785;43.898;1.886;2022-09-01T06:18:37;15.20;;;6.53;;
70363;SDS011;57785;43.898;1.886;2022-09-01T06:21:04;11.50;;;7.10;;
70363;SDS011;57785;43.898;1.886;2022-09-01T06:23:32;12.93;;;6.88;;
70363;SDS011;57785;43.898;1.886;2022-09-01T06:26:00;12.82;;;6.95;;
70363;SDS011;57785;43.898;1.886;2022-09-01T06:28:28;13.02;;;6.47;;
70363;SDS011;57785;43.898;1.886;2022-09-01T06:30:55;91.57;;;10.27;;
70363;SDS011;57785;43.898;1.886;2022-09-01T06:33:21;13.52;;;6.72;;
70363;SDS011;57785;43.898;1.886;2022-09-01T06:35:49;9.93;;;6.07;;
70363;SDS011;57785;43.898;1.886;2022-09-01T06:38:16;11.60;;;6.32;;
70363;SDS011;57785;43.898;1.886;2022-09-01T06:40:43;11.13;;;6.85;;
70363;SDS011;57785;43.898;1.886;2022-09-01T06:43:10;12.82;;;7.35;;
70363;SDS011;57785;43.898;1.886;2022-09-01T06:45:40;9.57;;;6.25;;
70363;SDS011;57785;43.898;1.886;2022-09-01T06:48:06;12.02;;;6.53;;
70363;SDS011;57785;43.898;1.886;2022-09-01T06:50:33;11.30;;;6.68;;
70363;SDS011;57785;43.898;1.886;2022-09-01T06:52:59;11.10;;;6.75;;
70363;SDS011;57785;43.898;1.886;2022-09-01T06:55:34;12.77;;;6.28;;
70363;SDS011;57785;43.898;1.886;2022-09-01T06:58:02;29.25;;;6.75;;
70363;SDS011;57785;43.898;1.886;2022-09-01T07:00:30;23.05;;;6.43;;
70363;SDS011;57785;43.898;1.886;2022-09-01T07:02:56;13.10;;;6.50;;
70363;SDS011;57785;43.898;1.886;2022-09-01T07:05:23;14.60;;;7.03;;
70363;SDS011;57785;43.898;1.886;2022-09-01T07:07:50;10.07;;;6.07;;
70363;SDS011;57785;43.898;1.886;2022-09-01T07:10:19;74.82;;;9.18;;
70363;SDS011;57785;43.898;1.886;2022-09-01T07:12:54;24.33;;;6.38;;
70363;SDS011;57785;43.898;1.886;2022-09-01T07:15:21;15.80;;;6.03;;
70363;SDS011;57785;43.898;1.886;2022-09-01T07:17:48;12.68;;;6.22;;
70363;SDS011;57785;43.898;1.886;2022-09-01T07:20:16;11.70;;;5.82;;
70363;SDS011;57785;43.898;1.886;2022-09-01T07:22:45;10.07;;;6.00;;
70363;SDS011;57785;43.898;1.886;2022-09-01T07:25:11;10.88;;;5.78;;
70363;SDS011;57785;43.898;1.886;2022-09-01T07:27:38;13.80;;;6.20;;
70363;SDS011;57785;43.898;1.886;2022-09-01T07:30:05;15.35;;;6.40;;
70363;SDS011;57785;43.898;1.886;2022-09-01T07:32:34;12.13;;;5.90;;
70363;SDS011;57785;43.898;1.886;2022-09-01T07:35:01;14.45;;;6.32;;
70363;SDS011;57785;43.898;1.886;2022-09-01T07:37:28;11.70;;;5.97;;
70363;SDS011;57785;43.898;1.886;2022-09-01T07:39:55;10.95;;;6.10;;
70363;SDS011;57785;43.898;1.886;2022-09-01T07:42:22;17.00;;;5.93;;
70363;SDS011;57785;43.898;1.886;2022-09-01T07:44:48;10.60;;;5.55;;
70363;SDS011;57785;43.898;1.886;2022-09-01T07:47:14;10.68;;;5.63;;
70363;SDS011;57785;43.898;1.886;2022-09-01T07:49:41;11.82;;;5.63;;
70363;SDS011;57785;43.898;1.886;2022-09-01T07:52:07;10.48;;;5.43;;
70363;SDS011;57785;43.898;1.886;2022-09-01T16:56:49;10.15;;;4.18;;
70363;SDS011;57785;43.898;1.886;2022-09-01T17:01:49;11.73;;;3.83;;
70363;SDS011;57785;43.898;1.886;2022-09-01T17:04:31;8.65;;;3.90;;
70363;SDS011;57785;43.898;1.886;2022-09-01T17:09:44;7.82;;;4.07;;
70363;SDS011;57785;43.898;1.886;2022-09-01T17:12:18;8.70;;;3.88;;
70363;SDS011;57785;43.898;1.886;2022-09-01T17:14:53;7.72;;;4.13;;
70363;SDS011;57785;43.898;1.886;2022-09-01T17:17:24;12.57;;;3.65;;
70363;SDS011;57785;43.898;1.886;2022-09-01T17:19:50;8.75;;;3.35;;
70363;SDS011;57785;43.898;1.886;2022-09-01T17:22:18;6.68;;;3.80;;
70363;SDS011;57785;43.898;1.886;2022-09-01T17:24:47;27.27;;;4.47;;
70363;SDS011;57785;43.898;1.886;2022-09-01T17:29:44;9.05;;;3.80;;
70363;SDS011;57785;43.898;1.886;2022-09-01T17:32:19;9.88;;;3.97;;
70363;SDS011;57785;43.898;1.886;2022-09-01T17:40:11;10.57;;;4.00;;
70363;SDS011;57785;43.898;1.886;2022-09-01T17:53:18;5.95;;;3.65;;
70363;SDS011;57785;43.898;1.886;2022-09-01T18:08:37;7.72;;;3.58;;
70363;SDS011;57785;43.898;1.886;2022-09-01T18:16:02;9.00;;;3.63;;
70363;SDS011;57785;43.898;1.886;2022-09-01T18:18:37;6.53;;;3.92;;
70363;SDS011;57785;43.898;1.886;2022-09-01T18:21:12;6.10;;;3.28;;
70363;SDS011;57785;43.898;1.886;2022-09-01T18:23:39;7.15;;;3.38;;
70363;SDS011;57785;43.898;1.886;2022-09-01T18:28:41;4.82;;;3.40;;
70363;SDS011;57785;43.898;1.886;2022-09-01T18:33:44;6.00;;;3.70;;
70363;SDS011;57785;43.898;1.886;2022-09-01T18:39:01;15.82;;;5.80;;
70363;SDS011;57785;43.898;1.886;2022-09-01T18:49:07;6.90;;;3.97;;
70363;SDS011;57785;43.898;1.886;2022-09-01T18:54:17;6.57;;;3.83;;
70363;SDS011;57785;43.898;1.886;2022-09-01T18:59:36;7.10;;;3.75;;
70363;SDS011;57785;43.898;1.886;2022-09-01T19:02:14;6.35;;;3.85;;
70363;SDS011;57785;43.898;1.886;2022-09-01T19:04:43;13.48;;;4.05;;
70363;SDS011;57785;43.898;1.886;2022-09-01T19:07:14;6.20;;;3.80;;
70363;SDS011;57785;43.898;1.886;2022-09-01T19:15:01;6.88;;;3.72;;
70363;SDS011;57785;43.898;1.886;2022-09-01T19:22:36;7.60;;;3.90;;
70363;SDS011;57785;43.898;1.886;2022-09-01T19:25:06;6.32;;;3.75;;
70363;SDS011;57785;43.898;1.886;2022-09-01T19:28:00;8.65;;;3.50;;
70363;SDS011;57785;43.898;1.886;2022-09-01T19:30:26;7.15;;;4.13;;
70363;SDS011;57785;43.898;1.886;2022-09-01T19:32:55;7.68;;;3.80;;
70363;SDS011;57785;43.898;1.886;2022-09-01T19:35:23;9.18;;;4.30;;
70363;SDS011;57785;43.898;1.886;2022-09-01T19:37:49;9.75;;;4.35;;
70363;SDS011;57785;43.898;1.886;2022-09-01T19:40:20;7.47;;;3.92;;
70363;SDS011;57785;43.898;1.886;2022-09-01T19:43:00;8.05;;;3.65;;
70363;SDS011;57785;43.898;1.886;2022-09-01T19:45:29;7.63;;;4.00;;
70363;SDS011;57785;43.898;1.886;2022-09-01T19:52:56;6.38;;;3.58;;
70363;SDS011;57785;43.898;1.886;2022-09-01T19:55:36;8.00;;;3.78;;
70363;SDS011;57785;43.898;1.886;2022-09-01T20:00:57;8.10;;;4.35;;
70363;SDS011;57785;43.898;1.886;2022-09-01T20:03:32;6.38;;;3.78;;
70363;SDS011;57785;43.898;1.886;2022-09-01T20:06:00;7.90;;;3.80;;
70363;SDS011;57785;43.898;1.886;2022-09-01T20:08:31;7.82;;;3.90;;
70363;SDS011;57785;43.898;1.886;2022-09-01T20:13:57;7.88;;;4.00;;
70363;SDS011;57785;43.898;1.886;2022-09-01T20:16:39;6.90;;;3.72;;
70363;SDS011;57785;43.898;1.886;2022-09-01T20:19:09;9.45;;;3.95;;
70363;SDS011;57785;43.898;1.886;2022-09-01T20:21:38;8.00;;;3.80;;
70363;SDS011;57785;43.898;1.886;2022-09-01T20:29:18;7.20;;;4.00;;
70363;SDS011;57785;43.898;1.886;2022-09-01T20:31:51;7.53;;;3.88;;
70363;SDS011;57785;43.898;1.886;2022-09-01T20:39:41;8.93;;;4.13;;
70363;SDS011;57785;43.898;1.886;2022-09-01T20:42:39;11.15;;;4.30;;
70363;SDS011;57785;43.898;1.886;2022-09-01T20:47:33;7.05;;;3.97;;
70363;SDS011;57785;43.898;1.886;2022-09-01T20:50:00;6.88;;;4.18;;
70363;SDS011;57785;43.898;1.886;2022-09-01T20:55:27;10.80;;;3.85;;
70363;SDS011;57785;43.898;1.886;2022-09-01T21:10:16;10.57;;;4.15;;
70363;SDS011;57785;43.898;1.886;2022-09-01T21:17:56;7.25;;;4.30;;
70363;SDS011;57785;43.898;1.886;2022-09-01T21:22:59;12.25;;;4.43;;
70363;SDS011;57785;43.898;1.886;2022-09-01T21:25:25;10.05;;;4.50;;
70363;SDS011;57785;43.898;1.886;2022-09-01T21:27:52;7.65;;;4.45;;
70363;SDS011;57785;43.898;1.886;2022-09-01T21:30:19;8.60;;;4.30;;
70363;SDS011;57785;43.898;1.886;2022-09-01T21:32:46;8.75;;;4.63;;
70363;SDS011;57785;43.898;1.886;2022-09-01T21:35:13;8.20;;;4.53;;
70363;SDS011;57785;43.898;1.886;2022-09-01T21:37:39;10.20;;;4.93;;
70363;SDS011;57785;43.898;1.886;2022-09-01T21:40:06;8.23;;;4.47;;
70363;SDS011;57785;43.898;1.886;2022-09-01T21:42:33;7.15;;;4.25;;
70363;SDS011;57785;43.898;1.886;2022-09-01T21:45:01;7.88;;;4.05;;
70363;SDS011;57785;43.898;1.886;2022-09-01T21:47:27;10.95;;;4.28;;
70363;SDS011;57785;43.898;1.886;2022-09-01T21:49:54;9.18;;;4.25;;
70363;SDS011;57785;43.898;1.886;2022-09-01T21:52:20;7.80;;;4.28;;
70363;SDS011;57785;43.898;1.886;2022-09-01T21:54:46;10.23;;;4.60;;
70363;SDS011;57785;43.898;1.886;2022-09-01T21:57:12;7.75;;;4.20;;
70363;SDS011;57785;43.898;1.886;2022-09-01T21:59:38;12.35;;;5.20;;
70363;SDS011;57785;43.898;1.886;2022-09-01T22:02:04;8.18;;;3.97;;
70363;SDS011;57785;43.898;1.886;2022-09-01T22:04:34;6.35;;;4.15;;
70363;SDS011;57785;43.898;1.886;2022-09-01T22:07:01;8.40;;;4.03;;
70363;SDS011;57785;43.898;1.886;2022-09-01T22:09:27;6.43;;;4.43;;
70363;SDS011;57785;43.898;1.886;2022-09-01T22:11:53;7.20;;;4.43;;
70363;SDS011;57785;43.898;1.886;2022-09-01T22:14:20;6.80;;;4.00;;
70363;SDS011;57785;43.898;1.886;2022-09-01T22:16:46;9.07;;;4.53;;
70363;SDS011;57785;43.898;1.886;2022-09-01T22:19:12;9.93;;;5.57;;
70363;SDS011;57785;43.898;1.886;2022-09-01T22:21:38;9.48;;;4.80;;
70363;SDS011;57785;43.898;1.886;2022-09-01T22:24:05;7.50;;;4.60;;
70363;SDS011;57785;43.898;1.886;2022-09-01T22:26:32;8.82;;;4.70;;
70363;SDS011;57785;43.898;1.886;2022-09-01T22:28:58;8.70;;;4.82;;
70363;SDS011;57785;43.898;1.886;2022-09-01T22:31:25;8.80;;;4.50;;
70363;SDS011;57785;43.898;1.886;2022-09-01T22:33:52;7.90;;;4.53;;
70363;SDS011;57785;43.898;1.886;2022-09-01T22:36:19;8.10;;;4.50;;
70363;SDS011;57785;43.898;1.886;2022-09-01T22:38:45;8.75;;;4.50;;
70363;SDS011;57785;43.898;1.886;2022-09-01T22:41:15;6.70;;;4.63;;
70363;SDS011;57785;43.898;1.886;2022-09-01T22:43:41;8.60;;;4.68;;
70363;SDS011;57785;43.898;1.886;2022-09-01T22:46:07;9.43;;;4.90;;
70363;SDS011;57785;43.898;1.886;2022-09-01T22:48:33;11.30;;;4.65;;
70363;SDS011;57785;43.898;1.886;2022-09-01T22:51:02;7.95;;;4.68;;
70363;SDS011;57785;43.898;1.886;2022-09-01T22:53:29;7.45;;;4.40;;
70363;SDS011;57785;43.898;1.886;2022-09-01T22:55:55;6.93;;;4.53;;
70363;SDS011;57785;43.898;1.886;2022-09-01T22:58:21;8.15;;;4.80;;
70363;SDS011;57785;43.898;1.886;2022-09-01T23:00:51;7.05;;;4.38;;
70363;SDS011;57785;43.898;1.886;2022-09-01T23:03:17;8.73;;;4.53;;
70363;SDS011;57785;43.898;1.886;2022-09-01T23:05:45;8.18;;;4.30;;
